Conewango Valley, New York
Current Conditions -  °F | °C
As of 12:15 PM on Saturday 25 Oct 2014 (Local Time) from KJHW Reporting Station
Scattered Clouds Scattered Clouds  
Wind Chill: 59°   Ceiling: Unl
Heat Index: 59°   Visibility: 10mi
Dew Point: 46°   Wind: 12mph
Humidity: 63%   Direction: 210°SSW
Pressure: 29.77"   Gusts: 18mph
Location:  42.23°N, 79.07°W
Report Text: KJHW 251615Z AUTO 21010G16KT 10SM SCT050 15/08 A2977 RMK AO1
Loading
Personal Weather Stations






























Interactive Weather Map
Tropical Storm Tracking
New forecast layout! Learn more

10-Day Weather Forecast

Advertisements
Track Severe Weather on mobile